Weldon, CA

7:53 PM PDT on August 29, 2014 (GMT -0700)
Squirrel Mountain Valley | Change Station
CLOSE
Current Station
Personal Weather Station
Location: Squirrel Mountain Valley, CA
Elevation: 2884 ft
Nearby Weather Stations

Elev 2884 ft 35.63 °N, 118.41 °W | Updated 10 seconds ago

Clear
Clear
84.6 °F
Feels Like 82 °F
N
15.9
Wind Variable Wind from SW
Gusts 23.0 mph

Today
High -- | Low -- °F
--% Chance of Precip.
Yesterday
High -- | Low -- °F
Precip. -- in
6:23 AM 7:24 PM
Waxing Crescent, 18% visible
Pressure 29.73 in
Visibility 10.0 miles
Clouds Clear
Heat Index 82 °F
Dew Point 44 °F
Humidity 24%
Rainfall 0.00 in
Snow Depth Not available.
UV 0 out of 12
Pollen 9.30 out of 12
PM2.5 Good
Flu Activity Not available.
METAR KNID 300156Z AUTO 21012KT 10SM CLR 37/01 A2979 RMK AO2 SLP066 T03720006 $

More Conditions Fewer Conditions

Pressure 29.73 in
Visibility 10.0 miles
Clouds Clear
Heat Index 82 °F
Dew Point 44 °F
Humidity 24%
Rainfall 0.00 in
Snow Depth Not available.
UV 0 out of 12
Pollen 9.30 out of 12
PM2.5 Good
Flu Activity Not available.
METAR KNID 300156Z AUTO 21012KT 10SM CLR 37/01 A2979 RMK AO2 SLP066 T03720006 $

More Conditions Fewer Conditions

10-Day Weather Forecast

Almanac

Astronomy

Aug. 29, 2014 Rise Set
Actual Time 6:23 AM PDT 7:24 PM PDT
Civil Twilight 5:56 AM PDT 7:50 PM PDT
Nautical Twilight 5:25 AM PDT 8:21 PM PDT
Astronomical Twilight 4:53 AM PDT 8:53 PM PDT
Moon 10:07 AM PDT (8/29) 9:34 PM PDT (8/29)
Length of Visible Light 13h 53m
Length of Day
13h 01m
Tomorrow will be 2m 8s shorter.
Waxing Crescent, 18% of the Moon is Illuminated
Today
Waxing Crescent
Sep 2
First Quarter
Sep 8
Full
Sep 15
Last Quarter
Sep 24
New

Today's Extremes

State Highs State Lows

Community

WunderPhotos

Upload Photos

1,748,421 photos uploaded!

Nearby

Air Quality

  Air Quality AQ Index Pollutant
Yesterday Moderate
OZONE
Yesterday Good
PM2.5
Current Good
PM2.5
Friday Moderate
OZONE
Saturday Good
OZONE
Sunday Good
OZONE
Monday Good
OZONE
Tuesday Good
OZONE
Wednesday Good
OZONE

Snow Depth

Station Depth Elevation
Leavitt Meadows 0 in 7200 ft
Summit Meadow 0 in 9122 ft
Monitor Pass 0 in 8350 ft
Hagan's Meadow 0 in 8000 ft
CSS Lab 1 in 6900 ft

Earthquake Activity

City Distance Mag. Time & Date
Orange Cove, California 86 miles 2.5 7:48 AM PDT
2014-08-29
Minimum magnitude displayed is 2.5.

Coastal Water Temperatures

Place Temperature
No Stations Reporting

Nearby Weather Stations